sensor_id;sensor_type;location;lat;lon;timestamp;temperature;humidity
16781;DHT22;8507;50.056;8.248;2023-04-15T00:01:57;7.00;99.90
16781;DHT22;8507;50.056;8.248;2023-04-15T00:04:24;6.80;99.90
16781;DHT22;8507;50.056;8.248;2023-04-15T00:06:50;6.60;99.90
16781;DHT22;8507;50.056;8.248;2023-04-15T00:09:18;6.50;99.90
16781;DHT22;8507;50.056;8.248;2023-04-15T00:11:44;6.60;99.90
16781;DHT22;8507;50.056;8.248;2023-04-15T00:14:10;6.60;99.90
16781;DHT22;8507;50.056;8.248;2023-04-15T00:16:35;6.50;99.90
16781;DHT22;8507;50.056;8.248;2023-04-15T00:19:01;6.50;99.90
16781;DHT22;8507;50.056;8.248;2023-04-15T00:21:26;6.70;99.90
16781;DHT22;8507;50.056;8.248;2023-04-15T00:23:53;6.70;99.90
16781;DHT22;8507;50.056;8.248;2023-04-15T00:26:19;6.60;99.90
16781;DHT22;8507;50.056;8.248;2023-04-15T00:28:45;6.70;99.90
16781;DHT22;8507;50.056;8.248;2023-04-15T00:31:11;6.60;99.90
16781;DHT22;8507;50.056;8.248;2023-04-15T00:33:36;6.50;99.90
16781;DHT22;8507;50.056;8.248;2023-04-15T00:36:03;6.50;99.90
16781;DHT22;8507;50.056;8.248;2023-04-15T00:38:28;6.50;99.90
16781;DHT22;8507;50.056;8.248;2023-04-15T00:40:55;6.50;99.90
16781;DHT22;8507;50.056;8.248;2023-04-15T00:43:20;6.50;99.90
16781;DHT22;8507;50.056;8.248;2023-04-15T00:45:46;6.40;99.90
16781;DHT22;8507;50.056;8.248;2023-04-15T00:48:12;6.40;99.90
16781;DHT22;8507;50.056;8.248;2023-04-15T00:50:37;6.40;99.90
16781;DHT22;8507;50.056;8.248;2023-04-15T00:53:04;6.40;99.90
16781;DHT22;8507;50.056;8.248;2023-04-15T00:55:30;6.40;99.90
16781;DHT22;8507;50.056;8.248;2023-04-15T00:57:56;6.50;99.90
16781;DHT22;8507;50.056;8.248;2023-04-15T01:00:22;6.60;99.90
16781;DHT22;8507;50.056;8.248;2023-04-15T01:02:48;6.60;99.90
16781;DHT22;8507;50.056;8.248;2023-04-15T01:05:15;6.70;99.90
16781;DHT22;8507;50.056;8.248;2023-04-15T01:07:42;6.70;99.90
16781;DHT22;8507;50.056;8.248;2023-04-15T01:10:08;6.60;99.90
16781;DHT22;8507;50.056;8.248;2023-04-15T01:12:33;6.70;99.90
16781;DHT22;8507;50.056;8.248;2023-04-15T01:15:00;6.70;99.90
16781;DHT22;8507;50.056;8.248;2023-04-15T01:17:26;6.60;99.90
16781;DHT22;8507;50.056;8.248;2023-04-15T01:19:55;6.60;99.90
16781;DHT22;8507;50.056;8.248;2023-04-15T01:22:24;6.60;99.90
16781;DHT22;8507;50.056;8.248;2023-04-15T01:24:58;6.50;99.90
16781;DHT22;8507;50.056;8.248;2023-04-15T01:27:26;6.40;99.90
16781;DHT22;8507;50.056;8.248;2023-04-15T01:29:52;6.40;99.90
16781;DHT22;8507;50.056;8.248;2023-04-15T01:32:18;6.40;99.90
16781;DHT22;8507;50.056;8.248;2023-04-15T01:34:44;6.40;99.90
16781;DHT22;8507;50.056;8.248;2023-04-15T01:37:10;6.40;99.90
16781;DHT22;8507;50.056;8.248;2023-04-15T01:39:36;6.50;99.90
16781;DHT22;8507;50.056;8.248;2023-04-15T01:42:01;6.50;99.90
16781;DHT22;8507;50.056;8.248;2023-04-15T01:44:27;6.40;99.90
16781;DHT22;8507;50.056;8.248;2023-04-15T01:46:53;6.30;99.90
16781;DHT22;8507;50.056;8.248;2023-04-15T01:49:18;6.40;99.90
16781;DHT22;8507;50.056;8.248;2023-04-15T01:51:44;6.40;99.90
16781;DHT22;8507;50.056;8.248;2023-04-15T01:54:09;6.40;99.90
16781;DHT22;8507;50.056;8.248;2023-04-15T01:56:35;6.50;99.90
16781;DHT22;8507;50.056;8.248;2023-04-15T01:59:01;6.50;99.90
16781;DHT22;8507;50.056;8.248;2023-04-15T02:01:28;6.60;99.90
16781;DHT22;8507;50.056;8.248;2023-04-15T02:03:53;6.60;99.90
16781;DHT22;8507;50.056;8.248;2023-04-15T02:06:19;6.60;99.90
16781;DHT22;8507;50.056;8.248;2023-04-15T02:08:45;6.60;99.90
16781;DHT22;8507;50.056;8.248;2023-04-15T02:11:10;6.60;99.90
16781;DHT22;8507;50.056;8.248;2023-04-15T02:13:36;6.60;99.90
16781;DHT22;8507;50.056;8.248;2023-04-15T02:16:02;6.50;99.90
16781;DHT22;8507;50.056;8.248;2023-04-15T02:18:28;6.50;99.90
16781;DHT22;8507;50.056;8.248;2023-04-15T02:20:53;6.40;99.90
16781;DHT22;8507;50.056;8.248;2023-04-15T02:23:19;6.40;99.90
16781;DHT22;8507;50.056;8.248;2023-04-15T02:25:45;6.40;99.90
16781;DHT22;8507;50.056;8.248;2023-04-15T02:28:11;6.30;99.90
16781;DHT22;8507;50.056;8.248;2023-04-15T02:30:37;6.20;99.90
16781;DHT22;8507;50.056;8.248;2023-04-15T02:33:03;6.20;99.90
16781;DHT22;8507;50.056;8.248;2023-04-15T02:35:28;6.20;99.90
16781;DHT22;8507;50.056;8.248;2023-04-15T02:37:54;6.30;99.90
16781;DHT22;8507;50.056;8.248;2023-04-15T02:40:20;6.20;99.90
16781;DHT22;8507;50.056;8.248;2023-04-15T02:42:46;6.20;99.90
16781;DHT22;8507;50.056;8.248;2023-04-15T02:45:11;6.30;99.90
16781;DHT22;8507;50.056;8.248;2023-04-15T02:47:37;6.20;99.90
16781;DHT22;8507;50.056;8.248;2023-04-15T02:50:09;6.20;99.90
16781;DHT22;8507;50.056;8.248;2023-04-15T02:52:39;6.20;99.90
16781;DHT22;8507;50.056;8.248;2023-04-15T02:55:06;6.20;99.90
16781;DHT22;8507;50.056;8.248;2023-04-15T02:57:32;6.10;99.90
16781;DHT22;8507;50.056;8.248;2023-04-15T02:59:59;6.10;99.90
16781;DHT22;8507;50.056;8.248;2023-04-15T03:02:25;6.10;99.90
16781;DHT22;8507;50.056;8.248;2023-04-15T03:04:50;6.10;99.90
16781;DHT22;8507;50.056;8.248;2023-04-15T03:07:17;6.10;99.90
16781;DHT22;8507;50.056;8.248;2023-04-15T03:09:42;6.10;99.90
16781;DHT22;8507;50.056;8.248;2023-04-15T03:12:09;6.10;99.90
16781;DHT22;8507;50.056;8.248;2023-04-15T03:14:34;6.10;99.90
16781;DHT22;8507;50.056;8.248;2023-04-15T03:17:00;6.10;99.90
16781;DHT22;8507;50.056;8.248;2023-04-15T03:19:25;6.10;99.90
16781;DHT22;8507;50.056;8.248;2023-04-15T03:21:51;6.10;99.90
16781;DHT22;8507;50.056;8.248;2023-04-15T03:24:17;6.10;99.90
16781;DHT22;8507;50.056;8.248;2023-04-15T03:26:42;6.00;99.90
16781;DHT22;8507;50.056;8.248;2023-04-15T03:29:08;6.00;99.90
16781;DHT22;8507;50.056;8.248;2023-04-15T03:31:33;6.00;99.90
16781;DHT22;8507;50.056;8.248;2023-04-15T03:33:59;6.00;99.90
16781;DHT22;8507;50.056;8.248;2023-04-15T03:36:25;5.90;99.90
16781;DHT22;8507;50.056;8.248;2023-04-15T03:38:51;5.60;99.90
16781;DHT22;8507;50.056;8.248;2023-04-15T03:41:17;5.10;99.90
16781;DHT22;8507;50.056;8.248;2023-04-15T03:43:43;5.00;99.90
16781;DHT22;8507;50.056;8.248;2023-04-15T03:46:08;5.10;99.90
16781;DHT22;8507;50.056;8.248;2023-04-15T03:48:34;5.20;99.90
16781;DHT22;8507;50.056;8.248;2023-04-15T03:50:59;5.40;99.90
16781;DHT22;8507;50.056;8.248;2023-04-15T03:53:25;5.50;99.90
16781;DHT22;8507;50.056;8.248;2023-04-15T03:55:50;5.60;99.90
16781;DHT22;8507;50.056;8.248;2023-04-15T03:58:16;5.60;99.90
16781;DHT22;8507;50.056;8.248;2023-04-15T04:00:42;5.70;99.90
16781;DHT22;8507;50.056;8.248;2023-04-15T04:03:07;5.70;99.90
16781;DHT22;8507;50.056;8.248;2023-04-15T04:05:33;5.70;99.90
16781;DHT22;8507;50.056;8.248;2023-04-15T04:08:01;5.70;99.90
16781;DHT22;8507;50.056;8.248;2023-04-15T04:10:27;5.70;99.90
16781;DHT22;8507;50.056;8.248;2023-04-15T04:12:52;5.70;99.90
16781;DHT22;8507;50.056;8.248;2023-04-15T04:15:18;5.70;99.90
16781;DHT22;8507;50.056;8.248;2023-04-15T04:17:43;5.70;99.90
16781;DHT22;8507;50.056;8.248;2023-04-15T04:20:09;5.70;99.90
16781;DHT22;8507;50.056;8.248;2023-04-15T04:22:38;5.60;99.90
16781;DHT22;8507;50.056;8.248;2023-04-15T04:25:05;5.50;99.90
16781;DHT22;8507;50.056;8.248;2023-04-15T04:27:31;5.60;99.90
16781;DHT22;8507;50.056;8.248;2023-04-15T04:29:56;5.60;99.90
16781;DHT22;8507;50.056;8.248;2023-04-15T04:32:22;5.70;99.90
16781;DHT22;8507;50.056;8.248;2023-04-15T04:34:47;5.80;99.90
16781;DHT22;8507;50.056;8.248;2023-04-15T04:37:13;5.80;99.90
16781;DHT22;8507;50.056;8.248;2023-04-15T04:39:39;5.90;99.90
16781;DHT22;8507;50.056;8.248;2023-04-15T04:42:04;5.90;99.90
16781;DHT22;8507;50.056;8.248;2023-04-15T04:44:30;5.90;99.90
16781;DHT22;8507;50.056;8.248;2023-04-15T04:46:59;5.90;99.90
16781;DHT22;8507;50.056;8.248;2023-04-15T04:49:25;5.90;99.90
16781;DHT22;8507;50.056;8.248;2023-04-15T04:51:51;5.80;99.90
16781;DHT22;8507;50.056;8.248;2023-04-15T04:54:16;5.80;99.90
16781;DHT22;8507;50.056;8.248;2023-04-15T04:56:42;5.80;99.90
16781;DHT22;8507;50.056;8.248;2023-04-15T04:59:07;5.70;99.90
16781;DHT22;8507;50.056;8.248;2023-04-15T05:01:33;5.70;99.90
16781;DHT22;8507;50.056;8.248;2023-04-15T05:03:59;5.60;99.90
16781;DHT22;8507;50.056;8.248;2023-04-15T05:06:25;5.60;99.90
16781;DHT22;8507;50.056;8.248;2023-04-15T05:08:50;5.60;99.90
16781;DHT22;8507;50.056;8.248;2023-04-15T05:11:16;5.60;99.90
16781;DHT22;8507;50.056;8.248;2023-04-15T05:13:41;5.60;99.90
16781;DHT22;8507;50.056;8.248;2023-04-15T05:16:07;5.50;99.90
16781;DHT22;8507;50.056;8.248;2023-04-15T05:18:33;5.50;99.90
16781;DHT22;8507;50.056;8.248;2023-04-15T05:20:59;5.50;99.90
16781;DHT22;8507;50.056;8.248;2023-04-15T05:23:25;5.50;99.90
16781;DHT22;8507;50.056;8.248;2023-04-15T05:25:51;5.50;99.90
16781;DHT22;8507;50.056;8.248;2023-04-15T05:28:16;5.60;99.90
16781;DHT22;8507;50.056;8.248;2023-04-15T05:30:42;5.60;99.90
16781;DHT22;8507;50.056;8.248;2023-04-15T05:33:07;5.60;99.90
16781;DHT22;8507;50.056;8.248;2023-04-15T05:35:33;5.60;99.90
16781;DHT22;8507;50.056;8.248;2023-04-15T05:37:59;5.50;99.90
16781;DHT22;8507;50.056;8.248;2023-04-15T05:40:24;5.40;99.90
16781;DHT22;8507;50.056;8.248;2023-04-15T05:42:50;5.40;99.90
16781;DHT22;8507;50.056;8.248;2023-04-15T05:45:16;5.30;99.90
16781;DHT22;8507;50.056;8.248;2023-04-15T05:47:42;5.40;99.90
16781;DHT22;8507;50.056;8.248;2023-04-15T05:50:07;5.40;99.90
16781;DHT22;8507;50.056;8.248;2023-04-15T05:52:33;5.40;99.90
16781;DHT22;8507;50.056;8.248;2023-04-15T05:54:59;5.40;99.90
16781;DHT22;8507;50.056;8.248;2023-04-15T05:57:24;5.60;99.90
16781;DHT22;8507;50.056;8.248;2023-04-15T05:59:50;5.60;99.90
16781;DHT22;8507;50.056;8.248;2023-04-15T06:02:17;5.70;99.90
16781;DHT22;8507;50.056;8.248;2023-04-15T06:04:42;5.80;99.90
16781;DHT22;8507;50.056;8.248;2023-04-15T06:07:08;5.80;99.90
16781;DHT22;8507;50.056;8.248;2023-04-15T06:09:34;5.80;99.90
16781;DHT22;8507;50.056;8.248;2023-04-15T06:12:00;5.80;99.90
16781;DHT22;8507;50.056;8.248;2023-04-15T06:14:26;5.90;99.90
16781;DHT22;8507;50.056;8.248;2023-04-15T06:16:52;6.00;99.90
16781;DHT22;8507;50.056;8.248;2023-04-15T06:19:18;6.00;99.90
16781;DHT22;8507;50.056;8.248;2023-04-15T06:21:44;6.10;99.90
16781;DHT22;8507;50.056;8.248;2023-04-15T06:24:10;6.20;99.90
16781;DHT22;8507;50.056;8.248;2023-04-15T06:26:36;6.40;99.90
16781;DHT22;8507;50.056;8.248;2023-04-15T06:29:01;6.50;99.90
16781;DHT22;8507;50.056;8.248;2023-04-15T06:31:27;6.50;99.90
16781;DHT22;8507;50.056;8.248;2023-04-15T06:33:52;6.70;99.90
16781;DHT22;8507;50.056;8.248;2023-04-15T06:36:19;6.90;99.90
16781;DHT22;8507;50.056;8.248;2023-04-15T06:38:45;7.00;99.90
16781;DHT22;8507;50.056;8.248;2023-04-15T06:41:11;7.20;99.90
16781;DHT22;8507;50.056;8.248;2023-04-15T06:43:36;7.30;99.90
16781;DHT22;8507;50.056;8.248;2023-04-15T06:46:02;7.00;99.90
16781;DHT22;8507;50.056;8.248;2023-04-15T06:48:28;7.10;99.90
16781;DHT22;8507;50.056;8.248;2023-04-15T06:50:53;7.40;99.90
16781;DHT22;8507;50.056;8.248;2023-04-15T06:53:19;7.80;99.90
16781;DHT22;8507;50.056;8.248;2023-04-15T06:55:44;8.00;99.90
16781;DHT22;8507;50.056;8.248;2023-04-15T06:58:10;8.00;99.90
16781;DHT22;8507;50.056;8.248;2023-04-15T07:00:36;8.40;99.90
16781;DHT22;8507;50.056;8.248;2023-04-15T07:03:03;9.00;99.90
16781;DHT22;8507;50.056;8.248;2023-04-15T07:05:29;9.20;99.90
16781;DHT22;8507;50.056;8.248;2023-04-15T07:07:56;9.40;99.90
16781;DHT22;8507;50.056;8.248;2023-04-15T07:10:22;9.70;99.90
16781;DHT22;8507;50.056;8.248;2023-04-15T07:12:48;9.90;99.90
16781;DHT22;8507;50.056;8.248;2023-04-15T07:15:15;10.10;99.90
16781;DHT22;8507;50.056;8.248;2023-04-15T07:17:41;10.30;99.90
16781;DHT22;8507;50.056;8.248;2023-04-15T07:20:08;10.40;99.90
16781;DHT22;8507;50.056;8.248;2023-04-15T07:22:33;10.60;99.90
16781;DHT22;8507;50.056;8.248;2023-04-15T07:24:59;10.80;99.90
16781;DHT22;8507;50.056;8.248;2023-04-15T07:27:25;11.10;99.90
16781;DHT22;8507;50.056;8.248;2023-04-15T07:29:51;11.20;99.90
16781;DHT22;8507;50.056;8.248;2023-04-15T07:32:17;11.20;99.90
16781;DHT22;8507;50.056;8.248;2023-04-15T07:34:43;11.10;99.90
16781;DHT22;8507;50.056;8.248;2023-04-15T07:37:09;10.70;99.90
16781;DHT22;8507;50.056;8.248;2023-04-15T07:39:34;10.80;99.90
16781;DHT22;8507;50.056;8.248;2023-04-15T07:42:00;10.90;99.90
16781;DHT22;8507;50.056;8.248;2023-04-15T07:44:26;10.60;99.90
16781;DHT22;8507;50.056;8.248;2023-04-15T07:46:52;10.70;99.90
16781;DHT22;8507;50.056;8.248;2023-04-15T07:49:17;11.30;99.90
16781;DHT22;8507;50.056;8.248;2023-04-15T07:51:46;11.50;99.90
16781;DHT22;8507;50.056;8.248;2023-04-15T07:54:12;11.50;99.90
16781;DHT22;8507;50.056;8.248;2023-04-15T07:56:37;11.90;99.90
16781;DHT22;8507;50.056;8.248;2023-04-15T07:59:03;11.80;99.90
16781;DHT22;8507;50.056;8.248;2023-04-15T08:01:30;11.90;99.90
16781;DHT22;8507;50.056;8.248;2023-04-15T08:03:56;12.50;99.90
16781;DHT22;8507;50.056;8.248;2023-04-15T08:06:22;12.90;99.90
16781;DHT22;8507;50.056;8.248;2023-04-15T08:08:47;13.20;99.90
16781;DHT22;8507;50.056;8.248;2023-04-15T08:11:14;12.90;99.90
16781;DHT22;8507;50.056;8.248;2023-04-15T08:13:39;13.30;99.90
16781;DHT22;8507;50.056;8.248;2023-04-15T08:18:43;13.70;99.90
16781;DHT22;8507;50.056;8.248;2023-04-15T08:21:10;13.90;99.90
16781;DHT22;8507;50.056;8.248;2023-04-15T08:23:35;14.10;99.90
16781;DHT22;8507;50.056;8.248;2023-04-15T08:26:02;14.60;99.90
16781;DHT22;8507;50.056;8.248;2023-04-15T08:28:27;14.80;99.90
16781;DHT22;8507;50.056;8.248;2023-04-15T08:30:53;15.10;99.90
16781;DHT22;8507;50.056;8.248;2023-04-15T08:33:18;15.30;99.90
16781;DHT22;8507;50.056;8.248;2023-04-15T08:35:44;15.40;99.90
16781;DHT22;8507;50.056;8.248;2023-04-15T08:38:09;15.60;99.90
16781;DHT22;8507;50.056;8.248;2023-04-15T08:40:41;15.90;99.90
16781;DHT22;8507;50.056;8.248;2023-04-15T08:43:09;15.70;99.90
16781;DHT22;8507;50.056;8.248;2023-04-15T08:45:37;15.40;99.90
16781;DHT22;8507;50.056;8.248;2023-04-15T08:48:04;14.80;99.90
16781;DHT22;8507;50.056;8.248;2023-04-15T08:50:31;14.70;99.90
16781;DHT22;8507;50.056;8.248;2023-04-15T08:52:58;14.50;99.90
16781;DHT22;8507;50.056;8.248;2023-04-15T08:55:29;14.60;99.90
16781;DHT22;8507;50.056;8.248;2023-04-15T08:57:57;14.50;99.90
16781;DHT22;8507;50.056;8.248;2023-04-15T09:00:24;14.90;99.90
16781;DHT22;8507;50.056;8.248;2023-04-15T09:02:50;14.20;99.90
16781;DHT22;8507;50.056;8.248;2023-04-15T09:05:16;14.50;99.90
16781;DHT22;8507;50.056;8.248;2023-04-15T09:07:42;14.20;99.90
16781;DHT22;8507;50.056;8.248;2023-04-15T09:10:09;14.30;99.90
16781;DHT22;8507;50.056;8.248;2023-04-15T09:12:35;14.60;99.90
16781;DHT22;8507;50.056;8.248;2023-04-15T09:15:02;14.20;99.90
16781;DHT22;8507;50.056;8.248;2023-04-15T09:17:28;14.10;99.90
16781;DHT22;8507;50.056;8.248;2023-04-15T09:20:09;13.90;99.90
16781;DHT22;8507;50.056;8.248;2023-04-15T09:22:36;14.20;99.90
16781;DHT22;8507;50.056;8.248;2023-04-15T09:25:02;14.30;99.90
16781;DHT22;8507;50.056;8.248;2023-04-15T09:27:28;14.00;99.90
16781;DHT22;8507;50.056;8.248;2023-04-15T09:29:54;14.00;99.90
16781;DHT22;8507;50.056;8.248;2023-04-15T09:32:19;13.80;99.90
16781;DHT22;8507;50.056;8.248;2023-04-15T09:34:49;13.90;99.90
16781;DHT22;8507;50.056;8.248;2023-04-15T09:37:15;13.90;99.90
16781;DHT22;8507;50.056;8.248;2023-04-15T09:42:12;13.70;99.90
16781;DHT22;8507;50.056;8.248;2023-04-15T09:44:38;13.70;99.90
16781;DHT22;8507;50.056;8.248;2023-04-15T09:47:03;13.80;99.90
16781;DHT22;8507;50.056;8.248;2023-04-15T09:49:29;14.00;99.90
16781;DHT22;8507;50.056;8.248;2023-04-15T09:52:01;13.60;99.90
16781;DHT22;8507;50.056;8.248;2023-04-15T09:54:35;13.80;99.90
16781;DHT22;8507;50.056;8.248;2023-04-15T09:57:05;13.80;99.90
16781;DHT22;8507;50.056;8.248;2023-04-15T09:59:31;14.10;99.90
16781;DHT22;8507;50.056;8.248;2023-04-15T10:01:57;14.00;99.90
16781;DHT22;8507;50.056;8.248;2023-04-15T10:04:22;14.30;99.90
16781;DHT22;8507;50.056;8.248;2023-04-15T10:06:49;14.60;99.90
16781;DHT22;8507;50.056;8.248;2023-04-15T10:09:15;14.60;99.90
16781;DHT22;8507;50.056;8.248;2023-04-15T10:11:42;14.80;99.90
16781;DHT22;8507;50.056;8.248;2023-04-15T10:14:09;15.00;99.90
16781;DHT22;8507;50.056;8.248;2023-04-15T10:16:38;15.30;99.90
16781;DHT22;8507;50.056;8.248;2023-04-15T10:19:08;15.00;99.90
16781;DHT22;8507;50.056;8.248;2023-04-15T10:21:36;15.10;99.90
16781;DHT22;8507;50.056;8.248;2023-04-15T10:24:02;15.00;99.90
16781;DHT22;8507;50.056;8.248;2023-04-15T10:26:28;15.20;99.90
16781;DHT22;8507;50.056;8.248;2023-04-15T10:28:54;15.50;99.90
16781;DHT22;8507;50.056;8.248;2023-04-15T10:31:20;15.20;99.90
16781;DHT22;8507;50.056;8.248;2023-04-15T10:33:47;14.70;99.90
16781;DHT22;8507;50.056;8.248;2023-04-15T10:36:14;14.40;99.90
16781;DHT22;8507;50.056;8.248;2023-04-15T10:38:42;14.40;99.90
16781;DHT22;8507;50.056;8.248;2023-04-15T10:44:00;14.30;99.90
16781;DHT22;8507;50.056;8.248;2023-04-15T10:46:40;14.40;99.90
16781;DHT22;8507;50.056;8.248;2023-04-15T10:49:09;14.20;99.90
16781;DHT22;8507;50.056;8.248;2023-04-15T10:51:38;13.80;99.90
16781;DHT22;8507;50.056;8.248;2023-04-15T10:54:12;13.80;99.90
16781;DHT22;8507;50.056;8.248;2023-04-15T10:56:41;13.70;99.90
16781;DHT22;8507;50.056;8.248;2023-04-15T10:59:06;13.70;99.90
16781;DHT22;8507;50.056;8.248;2023-04-15T11:01:55;14.10;99.90
16781;DHT22;8507;50.056;8.248;2023-04-15T11:04:56;14.00;99.90
16781;DHT22;8507;50.056;8.248;2023-04-15T11:07:39;13.50;99.90
16781;DHT22;8507;50.056;8.248;2023-04-15T11:13:03;13.60;99.90
16781;DHT22;8507;50.056;8.248;2023-04-15T11:20:33;14.70;99.90
16781;DHT22;8507;50.056;8.248;2023-04-15T11:22:58;14.70;99.90
16781;DHT22;8507;50.056;8.248;2023-04-15T11:25:25;14.30;99.90
16781;DHT22;8507;50.056;8.248;2023-04-15T11:27:55;14.30;99.90
16781;DHT22;8507;50.056;8.248;2023-04-15T11:30:25;14.40;99.90
16781;DHT22;8507;50.056;8.248;2023-04-15T11:32:53;14.00;99.90
16781;DHT22;8507;50.056;8.248;2023-04-15T11:35:19;14.10;99.90
16781;DHT22;8507;50.056;8.248;2023-04-15T11:37:48;14.00;99.90
16781;DHT22;8507;50.056;8.248;2023-04-15T11:40:24;14.10;99.90
16781;DHT22;8507;50.056;8.248;2023-04-15T11:43:06;13.70;99.90
16781;DHT22;8507;50.056;8.248;2023-04-15T11:45:33;13.70;99.90
16781;DHT22;8507;50.056;8.248;2023-04-15T11:48:09;13.50;99.90
16781;DHT22;8507;50.056;8.248;2023-04-15T11:50:36;13.90;99.90
16781;DHT22;8507;50.056;8.248;2023-04-15T11:53:04;14.00;99.90
16781;DHT22;8507;50.056;8.248;2023-04-15T11:55:30;14.20;99.90
16781;DHT22;8507;50.056;8.248;2023-04-15T12:00:32;14.50;99.90
16781;DHT22;8507;50.056;8.248;2023-04-15T12:03:17;14.50;99.90
16781;DHT22;8507;50.056;8.248;2023-04-15T12:11:14;14.00;99.90
16781;DHT22;8507;50.056;8.248;2023-04-15T12:13:46;13.80;99.90
16781;DHT22;8507;50.056;8.248;2023-04-15T12:16:15;14.00;99.90
16781;DHT22;8507;50.056;8.248;2023-04-15T12:18:41;13.50;99.90
16781;DHT22;8507;50.056;8.248;2023-04-15T12:21:09;13.50;99.90
16781;DHT22;8507;50.056;8.248;2023-04-15T12:23:46;13.30;99.90
16781;DHT22;8507;50.056;8.248;2023-04-15T12:26:13;13.20;99.90
16781;DHT22;8507;50.056;8.248;2023-04-15T12:28:40;13.20;99.90
16781;DHT22;8507;50.056;8.248;2023-04-15T12:31:10;13.40;99.90
16781;DHT22;8507;50.056;8.248;2023-04-15T12:33:36;13.40;99.90
16781;DHT22;8507;50.056;8.248;2023-04-15T12:36:02;13.40;99.90
16781;DHT22;8507;50.056;8.248;2023-04-15T12:38:28;13.30;99.90
16781;DHT22;8507;50.056;8.248;2023-04-15T12:40:53;13.40;99.90
16781;DHT22;8507;50.056;8.248;2023-04-15T12:43:19;13.50;99.90
16781;DHT22;8507;50.056;8.248;2023-04-15T12:45:45;13.50;99.90
16781;DHT22;8507;50.056;8.248;2023-04-15T12:48:11;13.90;99.90
16781;DHT22;8507;50.056;8.248;2023-04-15T12:50:36;14.20;99.90
16781;DHT22;8507;50.056;8.248;2023-04-15T12:53:02;14.30;99.90
16781;DHT22;8507;50.056;8.248;2023-04-15T12:55:28;14.20;99.90
16781;DHT22;8507;50.056;8.248;2023-04-15T12:57:55;14.00;99.90
16781;DHT22;8507;50.056;8.248;2023-04-15T13:00:21;13.90;99.90
16781;DHT22;8507;50.056;8.248;2023-04-15T13:02:46;13.90;99.90
16781;DHT22;8507;50.056;8.248;2023-04-15T13:05:12;13.30;99.90
16781;DHT22;8507;50.056;8.248;2023-04-15T13:07:40;12.80;99.90
16781;DHT22;8507;50.056;8.248;2023-04-15T13:10:06;12.90;99.90
16781;DHT22;8507;50.056;8.248;2023-04-15T13:12:32;12.90;99.90
16781;DHT22;8507;50.056;8.248;2023-04-15T13:15:01;12.90;99.90
16781;DHT22;8507;50.056;8.248;2023-04-15T13:17:28;11.90;99.90
16781;DHT22;8507;50.056;8.248;2023-04-15T13:19:54;12.20;99.90
16781;DHT22;8507;50.056;8.248;2023-04-15T13:22:19;12.00;99.90
16781;DHT22;8507;50.056;8.248;2023-04-15T13:24:45;11.90;99.90
16781;DHT22;8507;50.056;8.248;2023-04-15T13:27:10;12.00;99.90
16781;DHT22;8507;50.056;8.248;2023-04-15T13:29:37;11.80;99.90
16781;DHT22;8507;50.056;8.248;2023-04-15T13:32:05;11.90;99.90
16781;DHT22;8507;50.056;8.248;2023-04-15T13:34:31;12.10;99.90
16781;DHT22;8507;50.056;8.248;2023-04-15T13:36:56;12.50;99.90
16781;DHT22;8507;50.056;8.248;2023-04-15T13:39:22;12.60;99.90
16781;DHT22;8507;50.056;8.248;2023-04-15T13:41:47;12.50;99.90
16781;DHT22;8507;50.056;8.248;2023-04-15T13:44:13;12.60;99.90
16781;DHT22;8507;50.056;8.248;2023-04-15T13:46:39;12.80;99.90
16781;DHT22;8507;50.056;8.248;2023-04-15T13:49:06;12.80;99.90
16781;DHT22;8507;50.056;8.248;2023-04-15T13:51:32;12.00;99.90
16781;DHT22;8507;50.056;8.248;2023-04-15T13:53:57;12.10;99.90
16781;DHT22;8507;50.056;8.248;2023-04-15T13:56:23;11.90;99.90
16781;DHT22;8507;50.056;8.248;2023-04-15T13:58:48;11.80;99.90
16781;DHT22;8507;50.056;8.248;2023-04-15T14:01:14;11.70;99.90
16781;DHT22;8507;50.056;8.248;2023-04-15T14:03:40;11.50;99.90
16781;DHT22;8507;50.056;8.248;2023-04-15T14:06:06;11.70;99.90
16781;DHT22;8507;50.056;8.248;2023-04-15T14:08:32;11.70;99.90
16781;DHT22;8507;50.056;8.248;2023-04-15T14:10:57;11.70;99.90
16781;DHT22;8507;50.056;8.248;2023-04-15T14:13:23;11.50;99.90
16781;DHT22;8507;50.056;8.248;2023-04-15T14:15:48;11.10;99.90
16781;DHT22;8507;50.056;8.248;2023-04-15T14:18:14;11.00;99.90
16781;DHT22;8507;50.056;8.248;2023-04-15T14:20:40;10.60;99.90
16781;DHT22;8507;50.056;8.248;2023-04-15T14:23:05;10.50;99.90
16781;DHT22;8507;50.056;8.248;2023-04-15T14:25:31;10.70;99.90
16781;DHT22;8507;50.056;8.248;2023-04-15T14:27:56;10.90;99.90
16781;DHT22;8507;50.056;8.248;2023-04-15T14:30:22;11.10;99.90
16781;DHT22;8507;50.056;8.248;2023-04-15T14:32:47;11.10;99.90
16781;DHT22;8507;50.056;8.248;2023-04-15T14:35:13;11.20;99.90
16781;DHT22;8507;50.056;8.248;2023-04-15T14:37:38;11.20;99.90
16781;DHT22;8507;50.056;8.248;2023-04-15T14:40:05;11.20;99.90
16781;DHT22;8507;50.056;8.248;2023-04-15T14:42:30;11.20;99.90
16781;DHT22;8507;50.056;8.248;2023-04-15T14:44:56;11.20;99.90
16781;DHT22;8507;50.056;8.248;2023-04-15T14:47:21;11.30;99.90
16781;DHT22;8507;50.056;8.248;2023-04-15T14:49:47;11.20;99.90
16781;DHT22;8507;50.056;8.248;2023-04-15T14:52:12;11.20;99.90
16781;DHT22;8507;50.056;8.248;2023-04-15T14:54:38;11.30;99.90
16781;DHT22;8507;50.056;8.248;2023-04-15T14:57:03;11.40;99.90
16781;DHT22;8507;50.056;8.248;2023-04-15T14:59:29;11.50;99.90
16781;DHT22;8507;50.056;8.248;2023-04-15T15:01:55;11.40;99.90
16781;DHT22;8507;50.056;8.248;2023-04-15T15:04:20;11.50;99.90
16781;DHT22;8507;50.056;8.248;2023-04-15T15:06:47;11.50;99.90
16781;DHT22;8507;50.056;8.248;2023-04-15T15:09:12;11.60;99.90
16781;DHT22;8507;50.056;8.248;2023-04-15T15:11:38;11.50;99.90
16781;DHT22;8507;50.056;8.248;2023-04-15T15:14:04;11.30;99.90
16781;DHT22;8507;50.056;8.248;2023-04-15T15:16:29;11.40;99.90
16781;DHT22;8507;50.056;8.248;2023-04-15T15:18:55;11.40;99.90
16781;DHT22;8507;50.056;8.248;2023-04-15T15:21:21;11.30;99.90
16781;DHT22;8507;50.056;8.248;2023-04-15T15:23:46;11.30;99.90
16781;DHT22;8507;50.056;8.248;2023-04-15T15:26:13;11.20;99.90
16781;DHT22;8507;50.056;8.248;2023-04-15T15:28:38;11.30;99.90
16781;DHT22;8507;50.056;8.248;2023-04-15T15:31:04;11.20;99.90
16781;DHT22;8507;50.056;8.248;2023-04-15T15:33:30;11.00;99.90
16781;DHT22;8507;50.056;8.248;2023-04-15T15:35:57;11.00;99.90
16781;DHT22;8507;50.056;8.248;2023-04-15T15:38:22;11.20;99.90
16781;DHT22;8507;50.056;8.248;2023-04-15T15:40:48;11.20;99.90
16781;DHT22;8507;50.056;8.248;2023-04-15T15:43:13;11.20;99.90
16781;DHT22;8507;50.056;8.248;2023-04-15T15:45:39;11.10;99.90
16781;DHT22;8507;50.056;8.248;2023-04-15T15:48:05;10.90;99.90
16781;DHT22;8507;50.056;8.248;2023-04-15T15:50:31;10.70;99.90
16781;DHT22;8507;50.056;8.248;2023-04-15T15:52:56;10.70;99.90
16781;DHT22;8507;50.056;8.248;2023-04-15T15:55:23;10.40;99.90
16781;DHT22;8507;50.056;8.248;2023-04-15T15:57:50;10.50;99.90
16781;DHT22;8507;50.056;8.248;2023-04-15T16:00:16;10.60;99.90
16781;DHT22;8507;50.056;8.248;2023-04-15T16:02:42;10.50;99.90
16781;DHT22;8507;50.056;8.248;2023-04-15T16:05:10;10.70;99.90
16781;DHT22;8507;50.056;8.248;2023-04-15T16:07:35;10.70;99.90
16781;DHT22;8507;50.056;8.248;2023-04-15T16:10:01;10.40;99.90
16781;DHT22;8507;50.056;8.248;2023-04-15T16:12:26;10.50;99.90